sensor_id;sensor_type;location;lat;lon;timestamp;pressure;altitude;pressure_sealevel;temperature;humidity
42847;BME280;75159;49.916;14.536;2024-02-26T00:04:50;95544.25;;;4.70;65.72
42847;BME280;75159;49.916;14.536;2024-02-26T00:15:11;95543.59;;;4.78;65.51
42847;BME280;75159;49.916;14.536;2024-02-26T00:25:32;95526.84;;;4.62;65.48
42847;BME280;75159;49.916;14.536;2024-02-26T00:35:53;95520.28;;;4.29;65.53
42847;BME280;75159;49.916;14.536;2024-02-26T00:46:14;95524.34;;;4.31;65.79
42847;BME280;75159;49.916;14.536;2024-02-26T00:56:35;95509.94;;;4.29;65.03
42847;BME280;75159;49.916;14.536;2024-02-26T01:06:56;95493.13;;;4.44;65.54
42847;BME280;75159;49.916;14.536;2024-02-26T01:17:16;95491.91;;;4.58;65.43
42847;BME280;75159;49.916;14.536;2024-02-26T01:27:38;95481.44;;;4.40;65.48
42847;BME280;75159;49.916;14.536;2024-02-26T01:38:01;95481.84;;;4.35;65.81
42847;BME280;75159;49.916;14.536;2024-02-26T01:48:22;95471.38;;;4.37;65.62
42847;BME280;75159;49.916;14.536;2024-02-26T01:58:44;95458.97;;;4.11;65.18
42847;BME280;75159;49.916;14.536;2024-02-26T02:09:11;95457.13;;;3.82;65.41
42847;BME280;75159;49.916;14.536;2024-02-26T02:19:32;95446.03;;;3.60;65.83
42847;BME280;75159;49.916;14.536;2024-02-26T02:29:53;95459.28;;;3.77;66.21
42847;BME280;75159;49.916;14.536;2024-02-26T02:40:14;95465.94;;;3.48;65.97
42847;BME280;75159;49.916;14.536;2024-02-26T02:50:35;95453.88;;;3.49;65.93
42847;BME280;75159;49.916;14.536;2024-02-26T03:00:56;95442.41;;;3.63;66.15
42847;BME280;75159;49.916;14.536;2024-02-26T03:11:17;95444.25;;;3.92;66.79
42847;BME280;75159;49.916;14.536;2024-02-26T03:21:38;95445.94;;;3.72;66.37
42847;BME280;75159;49.916;14.536;2024-02-26T03:31:58;95451.00;;;3.42;66.47
42847;BME280;75159;49.916;14.536;2024-02-26T03:42:19;95449.81;;;3.56;66.36
42847;BME280;75159;49.916;14.536;2024-02-26T03:52:40;95464.69;;;3.43;67.06
42847;BME280;75159;49.916;14.536;2024-02-26T04:03:01;95455.44;;;3.71;66.96
42847;BME280;75159;49.916;14.536;2024-02-26T04:13:22;95455.75;;;3.78;67.09
42847;BME280;75159;49.916;14.536;2024-02-26T04:23:43;95449.25;;;3.84;66.65
42847;BME280;75159;49.916;14.536;2024-02-26T04:34:04;95448.66;;;3.70;66.62
42847;BME280;75159;49.916;14.536;2024-02-26T04:44:25;95456.44;;;3.80;66.49
42847;BME280;75159;49.916;14.536;2024-02-26T04:54:46;95452.03;;;3.71;66.39
42847;BME280;75159;49.916;14.536;2024-02-26T05:05:07;95447.97;;;3.68;66.91
42847;BME280;75159;49.916;14.536;2024-02-26T05:15:29;95450.78;;;4.06;67.79
42847;BME280;75159;49.916;14.536;2024-02-26T05:25:50;95452.41;;;3.97;67.04
42847;BME280;75159;49.916;14.536;2024-02-26T05:36:18;95454.50;;;3.72;66.98
42847;BME280;75159;49.916;14.536;2024-02-26T05:46:39;95479.44;;;3.62;66.97
42847;BME280;75159;49.916;14.536;2024-02-26T05:57:01;95486.47;;;3.91;67.79
42847;BME280;75159;49.916;14.536;2024-02-26T06:07:22;95489.28;;;3.78;66.88
42847;BME280;75159;49.916;14.536;2024-02-26T06:17:43;95500.66;;;3.75;66.69
42847;BME280;75159;49.916;14.536;2024-02-26T06:28:04;95507.25;;;3.37;67.23
42847;BME280;75159;49.916;14.536;2024-02-26T06:38:25;95526.53;;;3.43;66.84
42847;BME280;75159;49.916;14.536;2024-02-26T06:48:47;95535.59;;;3.16;67.25
42847;BME280;75159;49.916;14.536;2024-02-26T07:11:49;95552.75;;;3.05;69.10
42847;BME280;75159;49.916;14.536;2024-02-26T07:22:10;95540.63;;;2.85;69.40
42847;BME280;75159;49.916;14.536;2024-02-26T07:32:31;95536.66;;;2.92;69.52
42847;BME280;75159;49.916;14.536;2024-02-26T07:42:52;95547.22;;;3.10;70.00
42847;BME280;75159;49.916;14.536;2024-02-26T07:53:13;95545.41;;;3.22;69.89
42847;BME280;75159;49.916;14.536;2024-02-26T08:03:34;95561.59;;;3.34;70.55
42847;BME280;75159;49.916;14.536;2024-02-26T08:13:55;95574.00;;;3.40;70.21
42847;BME280;75159;49.916;14.536;2024-02-26T08:24:16;95568.66;;;3.53;70.92
42847;BME280;75159;49.916;14.536;2024-02-26T08:34:38;95583.44;;;3.51;70.67
42847;BME280;75159;49.916;14.536;2024-02-26T08:44:58;95582.88;;;3.69;70.89
42847;BME280;75159;49.916;14.536;2024-02-26T08:55:21;95577.09;;;3.86;70.97
42847;BME280;75159;49.916;14.536;2024-02-26T09:05:42;95570.47;;;4.15;71.43
42847;BME280;75159;49.916;14.536;2024-02-26T09:16:03;95582.75;;;4.32;71.53
42847;BME280;75159;49.916;14.536;2024-02-26T09:26:24;95590.94;;;4.37;71.07
42847;BME280;75159;49.916;14.536;2024-02-26T09:36:45;95585.38;;;4.42;71.23
42847;BME280;75159;49.916;14.536;2024-02-26T09:47:08;95604.13;;;4.44;71.12
42847;BME280;75159;49.916;14.536;2024-02-26T09:57:31;95610.53;;;4.50;71.02
42847;BME280;75159;49.916;14.536;2024-02-26T10:07:53;95610.84;;;4.66;71.09
42847;BME280;75159;49.916;14.536;2024-02-26T10:18:14;95625.81;;;4.72;71.23
42847;BME280;75159;49.916;14.536;2024-02-26T10:28:35;95631.16;;;4.81;71.07
42847;BME280;75159;49.916;14.536;2024-02-26T10:38:56;95641.31;;;4.72;70.96
42847;BME280;75159;49.916;14.536;2024-02-26T10:49:17;95648.91;;;4.64;70.70
42847;BME280;75159;49.916;14.536;2024-02-26T10:59:44;95652.94;;;4.26;70.57
42847;BME280;75159;49.916;14.536;2024-02-26T11:10:07;95652.53;;;4.21;71.30
42847;BME280;75159;49.916;14.536;2024-02-26T11:20:28;95652.59;;;4.31;71.22
42847;BME280;75159;49.916;14.536;2024-02-26T11:30:51;95642.75;;;4.24;70.95
42847;BME280;75159;49.916;14.536;2024-02-26T11:41:12;95654.97;;;4.22;71.25
42847;BME280;75159;49.916;14.536;2024-02-26T11:51:34;95650.66;;;4.33;71.17
42847;BME280;75159;49.916;14.536;2024-02-26T12:01:55;95642.16;;;4.42;71.54
42847;BME280;75159;49.916;14.536;2024-02-26T12:12:22;95636.13;;;4.72;71.60
42847;BME280;75159;49.916;14.536;2024-02-26T12:22:49;95624.38;;;4.90;70.63
42847;BME280;75159;49.916;14.536;2024-02-26T12:33:13;95636.03;;;4.74;71.28
42847;BME280;75159;49.916;14.536;2024-02-26T12:43:34;95625.72;;;4.84;71.17
42847;BME280;75159;49.916;14.536;2024-02-26T12:53:55;95633.75;;;4.91;70.75
42847;BME280;75159;49.916;14.536;2024-02-26T13:04:18;95657.56;;;5.04;70.84
42847;BME280;75159;49.916;14.536;2024-02-26T13:14:39;95663.72;;;5.13;70.83
42847;BME280;75159;49.916;14.536;2024-02-26T13:25:00;95688.94;;;4.90;70.87
42847;BME280;75159;49.916;14.536;2024-02-26T13:35:23;95686.97;;;5.13;71.13
42847;BME280;75159;49.916;14.536;2024-02-26T13:45:44;95681.41;;;5.17;70.79
42847;BME280;75159;49.916;14.536;2024-02-26T13:56:06;95683.47;;;5.43;70.76
42847;BME280;75159;49.916;14.536;2024-02-26T14:06:28;95672.72;;;5.68;71.45
42847;BME280;75159;49.916;14.536;2024-02-26T14:16:49;95701.41;;;5.45;70.74
42847;BME280;75159;49.916;14.536;2024-02-26T14:27:12;95701.56;;;5.43;70.50
42847;BME280;75159;49.916;14.536;2024-02-26T14:38:07;95708.09;;;5.47;70.84
42847;BME280;75159;49.916;14.536;2024-02-26T14:48:30;95701.44;;;5.64;70.66
42847;BME280;75159;49.916;14.536;2024-02-26T14:58:51;95702.78;;;5.39;70.40
42847;BME280;75159;49.916;14.536;2024-02-26T15:09:12;95701.56;;;5.53;71.02
42847;BME280;75159;49.916;14.536;2024-02-26T15:19:33;95711.91;;;5.43;70.77
42847;BME280;75159;49.916;14.536;2024-02-26T15:29:55;95718.59;;;5.65;71.04
42847;BME280;75159;49.916;14.536;2024-02-26T15:40:19;95741.06;;;5.55;70.48
42847;BME280;75159;49.916;14.536;2024-02-26T15:50:40;95743.50;;;5.57;70.32
42847;BME280;75159;49.916;14.536;2024-02-26T16:01:04;95766.63;;;5.48;70.66
42847;BME280;75159;49.916;14.536;2024-02-26T16:11:38;95783.25;;;5.65;70.81
42847;BME280;75159;49.916;14.536;2024-02-26T16:22:00;95792.25;;;5.81;70.57
42847;BME280;75159;49.916;14.536;2024-02-26T16:32:21;95799.91;;;5.92;70.55
42847;BME280;75159;49.916;14.536;2024-02-26T16:42:43;95803.44;;;6.60;71.10
42847;BME280;75159;49.916;14.536;2024-02-26T16:53:04;95814.63;;;6.21;69.42
42847;BME280;75159;49.916;14.536;2024-02-26T17:03:24;95813.50;;;5.85;69.73
42847;BME280;75159;49.916;14.536;2024-02-26T17:13:45;95826.53;;;5.63;69.53
42847;BME280;75159;49.916;14.536;2024-02-26T17:24:07;95856.09;;;5.61;69.50
42847;BME280;75159;49.916;14.536;2024-02-26T17:34:29;95856.44;;;5.46;69.36
42847;BME280;75159;49.916;14.536;2024-02-26T17:44:49;95863.47;;;5.34;69.53
42847;BME280;75159;49.916;14.536;2024-02-26T17:55:10;95875.97;;;4.98;69.00
42847;BME280;75159;49.916;14.536;2024-02-26T18:05:31;95884.34;;;4.91;68.98
42847;BME280;75159;49.916;14.536;2024-02-26T18:15:52;95880.13;;;5.11;69.11
42847;BME280;75159;49.916;14.536;2024-02-26T18:26:13;95881.00;;;5.00;68.63
42847;BME280;75159;49.916;14.536;2024-02-26T18:36:43;95887.59;;;4.93;68.78
42847;BME280;75159;49.916;14.536;2024-02-26T18:47:10;95880.19;;;4.78;68.39
42847;BME280;75159;49.916;14.536;2024-02-26T18:57:33;95883.44;;;4.59;68.65
42847;BME280;75159;49.916;14.536;2024-02-26T19:07:54;95900.56;;;4.39;68.76
42847;BME280;75159;49.916;14.536;2024-02-26T19:18:22;95908.63;;;4.46;68.67
42847;BME280;75159;49.916;14.536;2024-02-26T19:28:43;95914.19;;;4.62;68.36
42847;BME280;75159;49.916;14.536;2024-02-26T19:39:06;95927.88;;;4.41;68.45
42847;BME280;75159;49.916;14.536;2024-02-26T19:49:28;95950.47;;;4.17;68.53
42847;BME280;75159;49.916;14.536;2024-02-26T19:59:49;95971.13;;;4.17;69.04
42847;BME280;75159;49.916;14.536;2024-02-26T20:10:10;95996.28;;;4.58;70.64
42847;BME280;75159;49.916;14.536;2024-02-26T20:20:31;95979.28;;;4.45;68.86
42847;BME280;75159;49.916;14.536;2024-02-26T20:30:51;95982.59;;;4.24;68.85
42847;BME280;75159;49.916;14.536;2024-02-26T20:41:15;95989.78;;;4.20;68.61
42847;BME280;75159;49.916;14.536;2024-02-26T20:51:36;95989.56;;;4.12;68.88
42847;BME280;75159;49.916;14.536;2024-02-26T21:01:57;96002.56;;;3.99;68.27
42847;BME280;75159;49.916;14.536;2024-02-26T21:12:18;96002.81;;;3.96;68.57
42847;BME280;75159;49.916;14.536;2024-02-26T21:22:39;96013.47;;;4.03;69.08
42847;BME280;75159;49.916;14.536;2024-02-26T21:33:04;96045.28;;;3.92;68.50
42847;BME280;75159;49.916;14.536;2024-02-26T21:43:24;96056.53;;;3.91;68.43
42847;BME280;75159;49.916;14.536;2024-02-26T21:53:45;96042.09;;;3.88;68.53
42847;BME280;75159;49.916;14.536;2024-02-26T22:04:09;96031.09;;;3.97;68.82
42847;BME280;75159;49.916;14.536;2024-02-26T22:14:31;96025.91;;;3.86;68.50
42847;BME280;75159;49.916;14.536;2024-02-26T22:24:51;96027.41;;;3.66;68.68
42847;BME280;75159;49.916;14.536;2024-02-26T22:35:12;96032.47;;;3.79;68.97
42847;BME280;75159;49.916;14.536;2024-02-26T22:45:34;96040.00;;;3.82;69.38
42847;BME280;75159;49.916;14.536;2024-02-26T22:55:55;96051.81;;;3.96;69.23
42847;BME280;75159;49.916;14.536;2024-02-26T23:06:16;96044.78;;;4.09;69.50
42847;BME280;75159;49.916;14.536;2024-02-26T23:16:37;96050.56;;;4.13;69.23
42847;BME280;75159;49.916;14.536;2024-02-26T23:26:58;96055.09;;;4.09;69.30
42847;BME280;75159;49.916;14.536;2024-02-26T23:37:19;96045.72;;;4.08;69.39
42847;BME280;75159;49.916;14.536;2024-02-26T23:47:40;96023.81;;;3.91;69.04
42847;BME280;75159;49.916;14.536;2024-02-26T23:58:01;96056.53;;;3.91;69.00
